Time;durP1;ratioP1;P1;durP2;ratioP2;P2;SDS_P1;SDS_P2;PMS_P1;PMS_P2;Temp;Humidity;BMP_temperature;BMP_pressure;BME280_temperature;BME280_humidity;BME280_pressure;Samples;Min_cycle;Max_cycle;Signal;HPM_P1;HPM_P2
2023/01/05 00:02:17;;;;;;;7.20;4.03;;;;;;;7.88;nan;102709.47;5032667;28;20432;-90
2023/01/05 00:04:50;;;;;;;7.27;3.87;;;;;;;7.98;nan;102732.22;5060313;28;20432;-89
2023/01/05 00:07:20;;;;;;;7.10;4.10;;;;;;;7.86;nan;102714.19;5030262;28;20461;-90
2023/01/05 00:22:29;;;;;;;6.37;3.37;;;;;;;7.97;nan;102725.03;5023918;28;20451;-90
2023/01/05 00:23:08;;;;;;;12.23;5.80;;;;;;;7.92;nan;102716.38;5028857;28;20455;-90
2023/01/05 00:25:38;;;;;;;12.70;6.80;;;;;;;7.86;nan;102706.88;4999107;28;20445;-90
2023/01/05 00:28:18;;;;;;;11.10;6.93;;;;;;;7.92;nan;102716.38;4994718;28;20456;-90
2023/01/05 00:30:58;;;;;;;12.40;6.67;;;;;;;7.91;nan;102710.06;4999594;28;20455;-91
2023/01/05 00:33:34;;;;;;;10.23;5.73;;;;;;;7.88;nan;102706.75;4979361;28;20507;-90
2023/01/05 00:36:11;;;;;;;9.83;5.00;;;;;;;7.87;nan;102700.44;4979183;28;20483;-90
2023/01/05 00:39:13;;;;;;;9.30;4.33;;;;;;;7.86;nan;102706.88;4920889;29;20463;-90
2023/01/05 00:41:50;;;;;;;16.90;8.17;;;;;;;7.86;nan;102701.44;4927728;29;20458;-90
2023/01/05 00:44:51;;;;;;;18.97;10.07;;;;;;;7.84;nan;102687.09;4924705;29;20459;-90
2023/01/05 00:47:26;;;;;;;23.73;11.77;;;;;;;7.84;nan;102697.13;4923556;29;20462;-90
2023/01/05 00:50:16;;;;;;;19.53;9.23;;;;;;;7.83;nan;102692.66;4890136;29;20886;-91
2023/01/05 00:53:09;;;;;;;17.50;7.60;;;;;;;7.79;nan;102689.31;4917826;29;20460;-91
2023/01/05 00:55:58;;;;;;;16.47;8.70;;;;;;;7.78;nan;102693.03;4933065;29;20454;-90
2023/01/05 00:58:29;;;;;;;16.57;7.93;;;;;;;7.72;nan;102681.78;5015427;28;20930;-90
2023/01/05 01:01:10;;;;;;;14.73;7.57;;;;;;;7.68;nan;102675.75;4979728;28;20531;-90
2023/01/05 01:04:02;;;;;;;10.50;6.20;;;;;;;7.73;nan;102672.63;4962730;28;20454;-90
2023/01/05 01:07:12;;;;;;;6.80;3.33;;;;;;;7.71;nan;102680.06;4994883;28;20983;-90
2023/01/05 01:09:41;;;;;;;12.30;4.60;;;;;;;7.61;nan;102667.22;4996858;28;20456;-90
2023/01/05 01:12:36;;;;;;;12.37;7.07;;;;;;;7.65;nan;102670.56;4978695;28;20437;-90
2023/01/05 01:15:25;;;;;;;13.00;6.10;;;;;;;7.65;nan;102661.53;4994423;28;20449;-90
2023/01/05 01:18:24;;;;;;;11.03;5.37;;;;;;;7.62;nan;102666.25;5011903;28;20460;-90
2023/01/05 01:21:32;;;;;;;10.77;5.20;;;;;;;7.61;nan;102666.38;5012559;28;20440;-90
2023/01/05 01:24:00;;;;;;;11.23;6.30;;;;;;;7.57;nan;102651.28;4981990;28;20465;-90
2023/01/05 01:26:53;;;;;;;17.17;5.80;;;;;;;7.55;nan;102667.72;4984952;28;20455;-90
2023/01/05 01:29:39;;;;;;;10.03;5.50;;;;;;;7.48;nan;102652.91;5017758;28;20456;-90
2023/01/05 01:32:29;;;;;;;13.97;6.27;;;;;;;7.47;nan;102667.50;5004959;28;20515;-90
2023/01/05 01:35:07;;;;;;;9.03;5.00;;;;;;;7.33;nan;102626.97;5013577;28;20451;-91
2023/01/05 01:38:17;;;;;;;4.20;2.60;;;;;;;7.43;nan;102652.44;4998094;28;20486;-92
2023/01/05 01:41:20;;;;;;;5.83;3.10;;;;;;;7.39;nan;102648.22;5013921;28;20448;-90
2023/01/05 01:44:01;;;;;;;6.80;3.17;;;;;;;7.32;nan;102644.25;4994628;28;20452;-91
2023/01/05 01:46:35;;;;;;;11.43;3.83;;;;;;;7.38;nan;102651.06;5032499;28;20455;-90
2023/01/05 01:49:16;;;;;;;7.00;3.67;;;;;;;7.33;nan;102643.28;5017065;28;20450;-90
2023/01/05 01:55:43;;;;;;;6.77;4.20;;;;;;;7.30;nan;102649.00;4995080;28;20515;-90
2023/01/05 01:58:21;;;;;;;9.43;5.17;;;;;;;7.27;nan;102643.81;5028390;28;20546;-90
2023/01/05 02:00:59;;;;;;;8.90;4.40;;;;;;;7.27;nan;102643.81;4997280;28;20460;-91
2023/01/05 02:03:49;;;;;;;7.67;4.07;;;;;;;7.27;nan;102654.69;5016962;28;20470;-90
2023/01/05 02:06:18;;;;;;;5.87;3.10;;;;;;;7.20;nan;102642.56;5032951;28;20486;-91
2023/01/05 02:08:49;;;;;;;15.77;4.57;;;;;;;7.20;nan;102645.28;5000582;28;20451;-90
2023/01/05 02:11:35;;;;;;;6.50;3.60;;;;;;;7.10;nan;102634.31;5015610;28;20585;-90
2023/01/05 02:14:42;;;;;;;8.23;3.87;;;;;;;7.17;nan;102642.81;5015724;28;20439;-91
2023/01/05 02:21:05;;;;;;;6.30;2.33;;;;;;;7.05;nan;102635.66;5032616;28;20474;-90
2023/01/05 02:24:08;;;;;;;4.60;2.50;;;;;;;7.06;nan;102640.13;5032260;28;20455;-90
2023/01/05 02:30:21;;;;;;;6.03;2.60;;;;;;;7.02;nan;102644.94;5014422;28;20451;-91
2023/01/05 02:37:00;;;;;;;8.27;3.03;;;;;;;6.91;nan;102636.78;4978571;28;20531;-90
2023/01/05 02:39:51;;;;;;;6.50;3.60;;;;;;;6.97;nan;102644.44;4920275;29;20812;-91
2023/01/05 02:42:42;;;;;;;5.00;2.43;;;;;;;6.99;nan;102647.03;4908367;29;20452;-90
2023/01/05 02:45:33;;;;;;;5.10;2.67;;;;;;;6.98;nan;102645.28;4922899;29;20856;-90
2023/01/05 02:48:17;;;;;;;6.77;3.57;;;;;;;6.93;nan;102641.09;4920752;29;20454;-90
2023/01/05 02:51:13;;;;;;;8.40;2.73;;;;;;;6.94;nan;102648.25;4911657;29;20463;-91
2023/01/05 02:54:05;;;;;;;8.83;2.50;;;;;;;6.91;nan;102645.81;4922524;29;20578;-91
2023/01/05 02:56:53;;;;;;;9.60;2.67;;;;;;;6.90;nan;102638.66;4896304;29;20494;-91
2023/01/05 02:59:32;;;;;;;4.00;2.43;;;;;;;6.86;nan;102639.88;4925778;29;20459;-90
2023/01/05 03:05:32;;;;;;;5.00;2.33;;;;;;;6.82;nan;102632.06;4957071;29;20462;-90
2023/01/05 03:08:09;;;;;;;4.80;2.70;;;;;;;6.78;nan;102631.44;4926826;29;20455;-90
2023/01/05 03:14:31;;;;;;;8.47;3.50;;;;;;;6.76;nan;102638.00;4988888;28;20448;-91
2023/01/05 03:17:01;;;;;;;5.43;2.93;;;;;;;6.70;nan;102622.19;4976686;28;20493;-91
2023/01/05 03:19:38;;;;;;;4.50;2.80;;;;;;;6.70;nan;102617.63;5012012;28;20851;-90
2023/01/05 03:35:30;;;;;;;5.67;3.33;;;;;;;6.64;nan;102595.50;5041889;28;20466;-91
2023/01/05 03:38:28;;;;;;;8.17;4.33;;;;;;;6.72;nan;102615.66;5036998;28;20490;-91
2023/01/05 03:41:18;;;;;;;6.23;3.10;;;;;;;6.71;nan;102613.06;5021610;28;20952;-91
2023/01/05 03:43:57;;;;;;;10.60;3.83;;;;;;;6.71;nan;102615.78;5022631;28;20457;-91
2023/01/05 03:46:52;;;;;;;7.03;3.40;;;;;;;6.69;nan;102615.03;5022689;28;20484;-91
2023/01/05 03:49:43;;;;;;;6.10;3.00;;;;;;;6.62;nan;102603.78;5039022;28;20461;-91
2023/01/05 03:52:18;;;;;;;4.80;3.17;;;;;;;6.53;nan;102590.97;5038708;28;20458;-91
2023/01/05 03:54:57;;;;;;;5.10;2.40;;;;;;;6.57;nan;102600.56;5023307;28;20480;-91
2023/01/05 03:57:30;;;;;;;4.40;2.37;;;;;;;6.56;nan;102605.13;5028251;28;20798;-90
2023/01/05 04:00:11;;;;;;;4.27;2.60;;;;;;;6.55;nan;102606.13;5019593;28;20467;-91
2023/01/05 04:02:51;;;;;;;5.20;2.80;;;;;;;6.43;nan;102577.22;5038628;28;20446;-90
2023/01/05 04:05:50;;;;;;;7.00;2.40;;;;;;;6.54;nan;102595.41;5022570;28;20510;-90
2023/01/05 04:08:34;;;;;;;7.67;2.37;;;;;;;6.51;nan;102595.63;5020674;28;20867;-90
2023/01/05 04:11:19;;;;;;;4.53;2.40;;;;;;;6.51;nan;102592.91;5002327;28;20459;-91
2023/01/05 04:14:09;;;;;;;5.00;2.90;;;;;;;6.51;nan;102587.50;4998976;28;20498;-91
2023/01/05 04:20:01;;;;;;;4.80;2.50;;;;;;;6.45;nan;102575.25;5038636;28;20544;-91
2023/01/05 04:22:34;;;;;;;5.70;2.93;;;;;;;6.43;nan;102581.78;5022883;28;20500;-90
2023/01/05 04:25:02;;;;;;;8.30;3.30;;;;;;;6.44;nan;102575.38;4994690;28;20572;-90
2023/01/05 04:27:37;;;;;;;7.73;3.00;;;;;;;6.41;nan;102572.91;4998484;28;20453;-90
2023/01/05 04:30:20;;;;;;;4.20;2.17;;;;;;;6.39;nan;102570.31;4999325;28;20527;-89
2023/01/05 04:33:06;;;;;;;5.57;2.57;;;;;;;6.32;nan;102566.38;5002628;28;20464;-89
2023/01/05 04:35:53;;;;;;;5.47;2.60;;;;;;;6.41;nan;102581.03;4998902;28;20523;-90
2023/01/05 04:38:46;;;;;;;4.10;2.10;;;;;;;6.39;nan;102566.72;5014369;28;20480;-89
2023/01/05 04:41:14;;;;;;;3.10;1.47;;;;;;;6.27;nan;102570.41;5031956;28;20459;-89
2023/01/05 04:43:44;;;;;;;5.10;2.17;;;;;;;6.20;nan;102565.47;5018478;28;20535;-89
2023/01/05 04:46:12;;;;;;;4.77;2.80;;;;;;;6.16;nan;102563.97;5000627;28;20501;-90
2023/01/05 04:49:27;;;;;;;6.13;1.87;;;;;;;6.21;nan;102566.31;4998911;28;20456;-91
2023/01/05 04:52:10;;;;;;;4.80;1.90;;;;;;;6.21;nan;102566.31;5013562;28;20543;-91
2023/01/05 04:54:39;;;;;;;5.03;1.80;;;;;;;6.14;nan;102552.41;5013965;28;20460;-90
2023/01/05 04:57:13;;;;;;;4.30;2.00;;;;;;;6.15;nan;102556.84;4997815;28;20487;-90
2023/01/05 04:59:59;;;;;;;10.90;2.57;;;;;;;6.16;nan;102563.97;5014467;28;20483;-90
2023/01/05 05:02:49;;;;;;;3.83;2.27;;;;;;;6.16;nan;102563.97;5013967;28;20475;-90
2023/01/05 05:08:57;;;;;;;4.80;2.20;;;;;;;6.16;nan;102553.09;5027306;28;20442;-91
2023/01/05 05:11:27;;;;;;;5.70;2.30;;;;;;;6.17;nan;102557.56;5004684;28;20447;-89
2023/01/05 05:13:59;;;;;;;4.10;2.30;;;;;;;6.12;nan;102546.22;5026196;28;20435;-89
2023/01/05 05:16:27;;;;;;;5.27;2.33;;;;;;;6.13;nan;102552.50;5040765;28;20454;-89
2023/01/05 05:18:56;;;;;;;5.30;2.50;;;;;;;6.13;nan;102552.50;5032792;28;20459;-90
2023/01/05 05:21:27;;;;;;;5.10;2.60;;;;;;;6.16;nan;102553.09;4998245;28;20494;-91
2023/01/05 05:23:58;;;;;;;7.57;3.10;;;;;;;6.16;nan;102557.66;5014647;28;21021;-91
2023/01/05 05:26:56;;;;;;;3.73;1.80;;;;;;;6.15;nan;102556.84;4998297;28;20472;-89
2023/01/05 05:29:44;;;;;;;3.73;1.97;;;;;;;6.14;nan;102548.81;5014609;28;20460;-89
2023/01/05 05:32:32;;;;;;;3.67;1.97;;;;;;;6.00;nan;102549.88;5013629;28;20459;-90
2023/01/05 05:35:09;;;;;;;5.30;2.30;;;;;;;5.96;nan;102544.81;5014234;28;20445;-90
2023/01/05 05:37:47;;;;;;;3.73;2.07;;;;;;;5.83;nan;102534.00;5013817;28;20475;-90
2023/01/05 05:40:34;;;;;;;5.80;1.90;;;;;;;5.99;nan;102555.41;4925155;29;20981;-90
2023/01/05 05:43:32;;;;;;;4.93;2.00;;;;;;;5.98;nan;102554.56;4923574;29;20442;-91
2023/01/05 05:46:06;;;;;;;5.17;1.90;;;;;;;5.92;nan;102549.63;4939301;29;20455;-90
2023/01/05 05:49:08;;;;;;;3.50;2.17;;;;;;;5.93;nan;102556.78;4924657;29;20459;-91
2023/01/05 05:52:30;;;;;;;8.20;2.07;;;;;;;5.94;nan;102555.81;4939935;29;20451;-91
2023/01/05 05:54:58;;;;;;;7.00;2.07;;;;;;;5.92;nan;102546.91;4955334;29;20946;-89
2023/01/05 05:57:26;;;;;;;3.00;1.70;;;;;;;5.84;nan;102535.75;4906166;28;20498;-90
2023/01/05 05:59:54;;;;;;;3.70;2.07;;;;;;;5.89;nan;102550.72;4978366;28;20922;-90
2023/01/05 06:02:22;;;;;;;4.93;3.07;;;;;;;5.92;nan;102549.63;4983857;28;20542;-90
2023/01/05 06:05:31;;;;;;;5.63;2.60;;;;;;;5.92;nan;102552.34;5017589;28;20451;-90
2023/01/05 06:08:01;;;;;;;6.57;2.70;;;;;;;5.89;nan;102544.44;5035845;28;20447;-91
2023/01/05 06:10:33;;;;;;;3.33;2.07;;;;;;;5.91;nan;102553.31;5005450;28;20542;-91
2023/01/05 06:13:02;;;;;;;3.50;2.10;;;;;;;5.79;nan;102549.66;5020939;28;20464;-91
2023/01/05 06:15:35;;;;;;;4.10;2.17;;;;;;;5.84;nan;102552.03;5013346;28;20448;-91
2023/01/05 06:18:15;;;;;;;9.93;2.57;;;;;;;5.85;nan;102545.63;5000817;28;20556;-91
2023/01/05 06:20:44;;;;;;;6.50;3.53;;;;;;;5.82;nan;102548.56;5020854;28;20459;-91
2023/01/05 06:23:31;;;;;;;6.83;3.43;;;;;;;5.80;nan;102545.09;5005003;28;20938;-90
2023/01/05 06:25:58;;;;;;;19.00;7.20;;;;;;;5.78;nan;102544.34;5004560;28;20475;-90
2023/01/05 06:28:27;;;;;;;13.00;3.93;;;;;;;5.72;nan;102542.13;5018608;28;20463;-91
2023/01/05 06:30:54;;;;;;;18.03;6.57;;;;;;;5.74;nan;102556.44;4988692;28;20461;-91
2023/01/05 06:33:27;;;;;;;8.60;4.60;;;;;;;5.72;nan;102558.41;5005883;28;20530;-91
2023/01/05 06:39:36;;;;;;;7.43;2.93;;;;;;;5.71;nan;102548.53;5032205;28;20431;-90
2023/01/05 06:42:03;;;;;;;3.57;2.17;;;;;;;5.66;nan;102542.59;4993958;28;20455;-90
2023/01/05 06:44:50;;;;;;;3.80;2.13;;;;;;;5.68;nan;102551.47;5001224;28;20456;-90
2023/01/05 06:47:24;;;;;;;4.40;2.60;;;;;;;5.67;nan;102547.03;5000132;28;20452;-90
2023/01/05 06:49:54;;;;;;;8.43;3.40;;;;;;;5.57;nan;102538.75;5001034;28;21075;-90
2023/01/05 06:52:24;;;;;;;5.00;3.00;;;;;;;5.73;nan;102557.41;5028611;28;20981;-91
2023/01/05 06:54:51;;;;;;;6.60;2.67;;;;;;;5.71;nan;102562.09;5003135;28;20448;-89
2023/01/05 06:57:28;;;;;;;5.90;2.93;;;;;;;5.69;nan;102558.63;5005014;28;20475;-90
2023/01/05 07:00:16;;;;;;;4.70;2.17;;;;;;;5.69;nan;102558.63;5020252;28;20923;-90
2023/01/05 07:03:01;;;;;;;3.87;2.10;;;;;;;5.60;nan;102549.34;5002502;28;20451;-90
2023/01/05 07:05:41;;;;;;;4.30;2.67;;;;;;;5.58;nan;102562.16;5000200;28;20970;-90
2023/01/05 07:08:26;;;;;;;5.53;2.13;;;;;;;5.59;nan;102566.59;5000157;28;20459;-90
2023/01/05 07:10:56;;;;;;;5.87;2.63;;;;;;;5.51;nan;102553.63;5015458;28;20463;-90
2023/01/05 07:13:40;;;;;;;3.07;1.80;;;;;;;5.50;nan;102554.63;4996778;28;20453;-90
2023/01/05 07:16:08;;;;;;;5.57;2.20;;;;;;;5.51;nan;102559.06;4980776;28;20827;-90
2023/01/05 07:18:36;;;;;;;3.83;2.00;;;;;;;5.48;nan;102555.72;4979666;28;20500;-91
2023/01/05 07:21:04;;;;;;;7.07;2.50;;;;;;;5.46;nan;102553.13;4981077;28;20486;-89
2023/01/05 07:23:36;;;;;;;5.43;3.07;;;;;;;5.45;nan;102553.22;5012471;28;20943;-90
2023/01/05 07:26:05;;;;;;;15.13;5.03;;;;;;;5.45;nan;102548.66;4981719;28;20466;-90
2023/01/05 07:28:35;;;;;;;9.93;4.17;;;;;;;5.45;nan;102548.66;5003833;28;20497;-89
2023/01/05 07:31:33;;;;;;;15.07;5.00;;;;;;;5.49;nan;102558.31;5016049;28;20451;-89
2023/01/05 07:34:10;;;;;;;7.20;3.10;;;;;;;5.47;nan;102551.25;5036022;28;20458;-90
2023/01/05 07:36:38;;;;;;;6.67;3.17;;;;;;;5.47;nan;102545.84;5017809;28;20528;-90
2023/01/05 07:39:18;;;;;;;12.23;4.00;;;;;;;5.51;nan;102550.91;4983982;28;20485;-90
2023/01/05 07:41:58;;;;;;;11.77;5.40;;;;;;;5.53;nan;102548.97;4980353;28;20453;-90
2023/01/05 07:48:40;;;;;;;7.37;3.40;;;;;;;5.57;nan;102543.31;5017071;28;20427;-91
2023/01/05 07:54:36;;;;;;;26.13;10.43;;;;;;;5.53;nan;102548.09;5016638;28;20448;-91
2023/01/05 07:57:13;;;;;;;33.30;10.77;;;;;;;5.63;nan;102559.09;4983729;28;20559;-90
2023/01/05 07:59:49;;;;;;;33.40;8.50;;;;;;;5.49;nan;102536.63;5000645;28;20460;-91
2023/01/05 08:02:36;;;;;;;19.20;7.63;;;;;;;5.66;nan;102564.28;5014835;28;20810;-91
2023/01/05 08:05:12;;;;;;;28.07;7.27;;;;;;;5.61;nan;102550.22;5002641;28;20456;-92
2023/01/05 08:11:45;;;;;;;69.20;8.73;;;;;;;5.71;nan;102570.22;5014901;28;20467;-91
2023/01/05 08:14:27;;;;;;;25.07;6.70;;;;;;;5.65;nan;102558.00;4998781;28;20448;-90
2023/01/05 08:17:11;;;;;;;22.03;7.17;;;;;;;5.72;nan;102580.09;4999215;28;20944;-91
2023/01/05 08:19:54;;;;;;;45.30;8.10;;;;;;;5.73;nan;102574.56;5014516;28;20451;-90
2023/01/05 08:22:50;;;;;;;56.37;7.60;;;;;;;5.79;nan;102578.63;4982131;28;20448;-90
2023/01/05 08:25:18;;;;;;;43.23;10.00;;;;;;;5.82;nan;102581.13;5001468;28;20463;-92
2023/01/05 08:28:02;;;;;;;40.37;12.30;;;;;;;5.85;nan;102581.75;5034328;28;20460;-89
2023/01/05 08:30:47;;;;;;;38.07;7.90;;;;;;;5.89;nan;102577.84;5006207;28;20452;-89
2023/01/05 08:33:16;;;;;;;33.70;9.90;;;;;;;5.91;nan;102580.44;5000437;28;20802;-89
2023/01/05 08:36:31;;;;;;;40.27;11.20;;;;;;;6.00;nan;102585.16;5018174;28;20485;-89
2023/01/05 08:39:08;;;;;;;50.37;13.57;;;;;;;6.07;nan;102580.13;5017509;28;20479;-89
2023/01/05 08:41:37;;;;;;;45.20;14.00;;;;;;;6.14;nan;102590.41;5016906;28;20941;-89
2023/01/05 08:44:20;;;;;;;49.00;17.30;;;;;;;6.24;nan;102582.38;5017229;28;20455;-88
2023/01/05 08:46:53;;;;;;;47.23;20.93;;;;;;;6.35;nan;102589.69;5002371;28;20440;-89
2023/01/05 08:49:28;;;;;;;36.87;18.90;;;;;;;6.45;nan;102590.69;5017036;28;20781;-89
2023/01/05 08:51:59;;;;;;;43.90;20.80;;;;;;;6.55;nan;102591.66;4983564;28;20822;-89
2023/01/05 08:55:04;;;;;;;44.27;18.53;;;;;;;6.66;nan;102588.97;5001355;28;20866;-89
2023/01/05 09:20:54;;;;;;;31.27;16.80;;;;;;;7.80;nan;102601.22;5034961;28;20925;-94
2023/01/05 09:23:23;;;;;;;27.97;15.50;;;;;;;7.81;nan;102577.59;5018088;28;20455;-93
2023/01/05 09:25:51;;;;;;;31.63;16.00;;;;;;;7.98;nan;102579.75;4982322;28;20471;-93
2023/01/05 09:28:29;;;;;;;29.40;16.20;;;;;;;8.16;nan;102583.59;4983289;28;20456;-95
2023/01/05 09:31:07;;;;;;;24.90;14.77;;;;;;;8.39;nan;102605.28;4985045;28;20455;-95
2023/01/05 09:34:24;;;;;;;30.40;15.43;;;;;;;8.54;nan;102602.06;4998086;28;20455;-94
2023/01/05 09:37:19;;;;;;;39.83;16.17;;;;;;;8.74;nan;102608.50;5014256;28;20456;-93
2023/01/05 09:39:49;;;;;;;39.10;18.70;;;;;;;8.82;nan;102586.88;4994556;28;20487;-94
2023/01/05 09:42:47;;;;;;;39.83;22.33;;;;;;;9.11;nan;102603.31;4992892;28;20460;-89
2023/01/05 09:52:18;;;;;;;27.57;15.40;;;;;;;9.65;nan;102604.72;4998507;28;20452;-91
2023/01/05 09:54:48;;;;;;;26.70;14.20;;;;;;;9.95;nan;102614.69;4996315;28;20459;-92
2023/01/05 09:57:26;;;;;;;32.63;16.37;;;;;;;10.21;nan;102615.81;4997624;28;20490;-92
2023/01/05 10:00:04;;;;;;;33.30;16.67;;;;;;;10.43;nan;102616.50;4981405;28;20483;-90
2023/01/05 10:03:09;;;;;;;34.27;16.90;;;;;;;10.65;nan;102613.44;5019036;28;20455;-92
2023/01/05 10:09:46;;;;;;;35.80;17.23;;;;;;;11.24;nan;102618.53;5016703;28;20448;-93
2023/01/05 10:13:07;;;;;;;34.50;15.03;;;;;;;11.51;nan;102620.41;4993864;28;20777;-93
2023/01/05 10:19:22;;;;;;;18.23;10.67;;;;;;;12.11;nan;102609.72;5012061;28;20478;-91
2023/01/05 10:21:54;;;;;;;20.50;10.33;;;;;;;12.27;nan;102609.84;5013997;28;20532;-91
2023/01/05 10:25:06;;;;;;;20.53;9.73;;;;;;;12.60;nan;102626.53;4999455;28;20458;-90
2023/01/05 10:27:36;;;;;;;16.73;9.60;;;;;;;12.85;nan;102620.19;5008166;28;20436;-91
2023/01/05 10:30:20;;;;;;;20.87;10.63;;;;;;;13.04;nan;102608.97;5013938;28;20452;-91
2023/01/05 10:33:00;;;;;;;20.73;11.10;;;;;;;13.26;nan;102613.06;5013528;28;20482;-90
2023/01/05 10:36:30;;;;;;;19.63;9.80;;;;;;;13.47;nan;102609.84;5013426;28;20448;-91
2023/01/05 10:43:13;;;;;;;18.20;9.57;;;;;;;13.85;nan;102615.78;5014165;28;20457;-91
2023/01/05 10:45:43;;;;;;;17.77;9.93;;;;;;;13.93;nan;102602.91;4997345;28;20950;-91
2023/01/05 10:48:37;;;;;;;16.40;7.40;;;;;;;14.10;nan;102612.88;4986687;28;20440;-91
2023/01/05 10:51:05;;;;;;;17.50;7.80;;;;;;;14.12;nan;102590.72;4987382;28;20440;-91
2023/01/05 10:53:39;;;;;;;17.40;7.67;;;;;;;14.31;nan;102612.38;4983073;28;20456;-91
2023/01/05 10:56:31;;;;;;;18.23;7.80;;;;;;;14.47;nan;102609.63;5018554;28;21021;-91
2023/01/05 10:59:19;;;;;;;17.03;7.40;;;;;;;14.61;nan;102605.34;5000242;28;20503;-92
2023/01/05 11:01:48;;;;;;;12.17;5.67;;;;;;;14.72;nan;102606.84;4984154;28;20455;-91
2023/01/05 11:04:31;;;;;;;14.27;6.30;;;;;;;14.83;nan;102601.81;4985789;28;20444;-92
2023/01/05 11:07:08;;;;;;;14.90;6.50;;;;;;;14.98;nan;102601.97;4965225;28;20445;-92
2023/01/05 11:09:41;;;;;;;24.00;5.77;;;;;;;15.02;nan;102591.41;4980030;28;20452;-91
2023/01/05 11:12:19;;;;;;;19.53;5.40;;;;;;;15.12;nan;102589.34;4969308;28;21122;-92
2023/01/05 11:15:09;;;;;;;10.13;4.60;;;;;;;15.33;nan;102602.50;4970313;28;20507;-92
2023/01/05 11:17:57;;;;;;;12.80;5.70;;;;;;;15.35;nan;102605.94;4979910;28;20444;-91
2023/01/05 11:20:30;;;;;;;14.53;5.23;;;;;;;15.35;nan;102597.66;4981489;28;20461;-92
2023/01/05 11:23:25;;;;;;;17.93;5.23;;;;;;;15.44;nan;102604.84;4967581;28;20456;-92
2023/01/05 11:26:19;;;;;;;12.10;5.60;;;;;;;15.42;nan;102601.41;5006272;28;21020;-91
2023/01/05 11:29:02;;;;;;;20.10;6.30;;;;;;;15.36;nan;102613.16;5006076;28;20463;-92
2023/01/05 11:32:00;;;;;;;18.67;6.47;;;;;;;15.28;nan;102607.69;5045101;28;20454;-92
2023/01/05 11:35:11;;;;;;;24.37;5.27;;;;;;;15.24;nan;102592.53;5037010;28;20447;-92
2023/01/05 11:37:43;;;;;;;21.77;4.70;;;;;;;15.26;nan;102593.22;5020497;28;20447;-93
2023/01/05 11:40:19;;;;;;;19.23;5.70;;;;;;;15.34;nan;102584.94;5018900;28;20483;-93
2023/01/05 11:43:09;;;;;;;19.93;6.17;;;;;;;15.49;nan;102594.16;5019388;28;20542;-92
2023/01/05 11:45:54;;;;;;;13.27;5.80;;;;;;;15.59;nan;102578.25;5040570;28;20447;-93
2023/01/05 11:48:49;;;;;;;16.97;5.90;;;;;;;15.85;nan;102588.94;5021552;28;20562;-92
2023/01/05 11:51:42;;;;;;;15.87;5.93;;;;;;;15.99;nan;102579.00;5053430;28;20455;-93
2023/01/05 11:54:41;;;;;;;15.00;5.10;;;;;;;16.14;nan;102567.00;5035643;28;20448;-93
2023/01/05 12:01:14;;;;;;;13.53;5.20;;;;;;;16.29;nan;102567.03;5036484;28;20430;-93
2023/01/05 12:04:02;;;;;;;12.23;4.90;;;;;;;16.33;nan;102562.84;5035284;28;20447;-91
2023/01/05 12:06:48;;;;;;;17.23;5.30;;;;;;;16.38;nan;102557.59;5034223;28;20451;-91
2023/01/05 12:16:24;;;;;;;11.73;4.93;;;;;;;16.38;nan;102554.84;5036328;28;20430;-93
2023/01/05 12:26:03;;;;;;;22.20;5.00;;;;;;;16.55;nan;102537.06;5035996;28;20446;-91
2023/01/05 12:33:24;;;;;;;12.90;4.37;;;;;;;16.53;nan;102514.34;5035961;28;20482;-91
2023/01/05 12:37:01;;;;;;;28.73;5.00;;;;;;;16.53;nan;102514.34;4961825;28;20441;-92
2023/01/05 12:46:43;;;;;;;22.60;4.67;;;;;;;16.50;nan;102498.16;4975183;28;20817;-91
2023/01/05 12:56:52;;;;;;;20.93;4.53;;;;;;;16.78;nan;102483.69;4974841;28;20441;-92
2023/01/05 13:03:01;;;;;;;9.60;4.03;;;;;;;16.97;nan;102474.81;4974691;28;20465;-91
2023/01/05 13:12:42;;;;;;;13.30;4.20;;;;;;;17.10;nan;102469.47;5035296;28;20545;-91
2023/01/05 13:15:49;;;;;;;14.10;3.80;;;;;;;17.28;nan;102471.78;5017599;28;20933;-91
2023/01/05 13:21:58;;;;;;;15.30;3.63;;;;;;;17.53;nan;102458.41;5034815;28;20866;-91
2023/01/05 13:24:36;;;;;;;11.63;4.30;;;;;;;17.48;nan;102452.66;5033807;28;20450;-91
2023/01/05 13:27:05;;;;;;;15.93;4.33;;;;;;;17.45;nan;102450.28;5016860;28;21014;-91
2023/01/05 13:29:58;;;;;;;15.30;4.20;;;;;;;17.27;nan;102443.28;5033783;28;20467;-91
2023/01/05 13:33:04;;;;;;;14.63;4.10;;;;;;;17.12;nan;102442.50;5033182;28;20823;-91
2023/01/05 13:39:50;;;;;;;14.80;3.40;;;;;;;16.98;nan;102437.00;5034748;28;20462;-91
2023/01/05 13:56:53;;;;;;;9.27;3.57;;;;;;;16.49;nan;102405.34;5015210;28;20773;-91
2023/01/05 13:59:32;;;;;;;17.23;4.20;;;;;;;16.40;nan;102406.50;4997520;28;20487;-91
2023/01/05 14:02:47;;;;;;;21.97;4.70;;;;;;;16.27;nan;102399.94;5013526;28;20459;-91
2023/01/05 14:09:21;;;;;;;10.73;4.20;;;;;;;16.22;nan;102393.09;5015035;28;20484;-91
2023/01/05 14:12:34;;;;;;;8.63;3.93;;;;;;;16.32;nan;102395.56;5012718;28;20452;-92
2023/01/05 14:15:11;;;;;;;13.77;3.57;;;;;;;16.24;nan;102387.38;5014049;28;20452;-92
2023/01/05 14:21:47;;;;;;;11.33;3.80;;;;;;;16.66;nan;102377.56;5015854;28;20519;-93
2023/01/05 14:24:54;;;;;;;16.20;4.30;;;;;;;16.98;nan;102371.53;5014779;28;20958;-93
2023/01/05 14:27:23;;;;;;;22.53;4.00;;;;;;;17.32;nan;102378.28;5010313;28;20572;-92
2023/01/05 14:29:59;;;;;;;12.20;3.50;;;;;;;17.47;nan;102362.47;4967196;28;20448;-92
2023/01/05 14:32:42;;;;;;;8.40;3.93;;;;;;;17.45;nan;102368.19;4965490;28;20453;-92
2023/01/05 14:35:30;;;;;;;21.47;3.80;;;;;;;17.54;nan;102371.66;4981975;28;20453;-91
2023/01/05 14:38:08;;;;;;;12.27;4.10;;;;;;;17.63;nan;102359.41;4982727;28;20508;-92
2023/01/05 14:40:55;;;;;;;12.20;4.13;;;;;;;17.72;nan;102363.75;4982626;28;20847;-92
2023/01/05 14:43:30;;;;;;;11.30;3.33;;;;;;;17.84;nan;102362.16;4982181;28;20457;-91
2023/01/05 14:46:17;;;;;;;18.23;4.07;;;;;;;18.03;nan;102365.25;4982468;28;20938;-92
2023/01/05 14:49:10;;;;;;;15.37;4.13;;;;;;;18.20;nan;102361.94;4982151;28;20965;-92
2023/01/05 14:51:39;;;;;;;11.83;3.27;;;;;;;18.31;nan;102366.03;4982670;28;20450;-92
2023/01/05 14:54:15;;;;;;;15.60;3.87;;;;;;;18.38;nan;102369.69;4967004;28;20445;-93
2023/01/05 14:57:19;;;;;;;10.90;3.60;;;;;;;18.42;nan;102365.47;4967218;28;20780;-91
2023/01/05 15:00:30;;;;;;;22.77;4.10;;;;;;;18.44;nan;102363.34;5017830;28;20480;-93
2023/01/05 15:07:13;;;;;;;13.03;3.10;;;;;;;18.44;nan;102357.81;4999665;28;20444;-93
2023/01/05 15:10:33;;;;;;;16.57;3.23;;;;;;;18.44;nan;102368.88;5014571;28;20454;-92
2023/01/05 15:13:28;;;;;;;22.47;4.33;;;;;;;18.42;nan;102359.91;5015285;28;20536;-93
2023/01/05 15:16:39;;;;;;;18.50;5.00;;;;;;;18.39;nan;102360.31;5014948;28;20449;-93
2023/01/05 15:23:08;;;;;;;23.40;7.13;;;;;;;18.40;nan;102356.50;4986701;28;20893;-91
2023/01/05 15:26:16;;;;;;;13.33;6.53;;;;;;;18.40;nan;102366.72;4964847;28;20529;-92
2023/01/05 15:29:25;;;;;;;18.03;6.70;;;;;;;18.36;nan;102366.28;4922993;29;20444;-91
2023/01/05 15:32:02;;;;;;;14.27;6.13;;;;;;;18.32;nan;102367.75;4953373;29;20463;-91
2023/01/05 15:35:01;;;;;;;9.87;4.80;;;;;;;18.29;nan;102370.91;4921652;29;20444;-91
2023/01/05 15:37:34;;;;;;;21.57;5.33;;;;;;;18.21;nan;102360.88;4953382;29;20444;-90
2023/01/05 15:40:40;;;;;;;13.93;5.00;;;;;;;18.19;nan;102359.38;4907977;29;20503;-92
2023/01/05 15:43:17;;;;;;;16.90;5.47;;;;;;;18.12;nan;102366.78;4966793;28;20541;-91
2023/01/05 15:45:52;;;;;;;13.63;6.20;;;;;;;18.06;nan;102354.63;4927455;29;20451;-93
2023/01/05 15:48:44;;;;;;;21.23;5.70;;;;;;;18.05;nan;102368.66;4966679;29;20427;-92
2023/01/05 15:51:23;;;;;;;16.70;4.70;;;;;;;17.86;nan;102342.59;4903148;29;20447;-92
2023/01/05 15:53:58;;;;;;;29.07;5.13;;;;;;;17.92;nan;102353.66;4904598;29;20938;-93
2023/01/05 16:00:20;;;;;;;10.27;4.43;;;;;;;17.78;nan;102342.72;4918912;29;20475;-93
2023/01/05 16:02:58;;;;;;;8.57;4.97;;;;;;;17.80;nan;102360.84;4902565;29;20460;-93
2023/01/05 16:05:32;;;;;;;9.47;5.30;;;;;;;17.71;nan;102350.13;4918651;29;20951;-93
2023/01/05 16:08:14;;;;;;;13.43;5.37;;;;;;;17.55;nan;102329.13;4917856;29;20457;-92
2023/01/05 16:10:49;;;;;;;20.67;7.30;;;;;;;17.58;nan;102350.84;4960567;28;20516;-92
2023/01/05 16:13:37;;;;;;;12.07;5.53;;;;;;;17.49;nan;102354.84;4976370;28;20990;-92
2023/01/05 16:16:54;;;;;;;10.47;4.53;;;;;;;17.36;nan;102347.25;4976054;28;20430;-92